createdAt,value
2017-03-19T00:00:27.944Z,79.734
2017-03-19T00:03:35.164Z,79.899
2017-03-19T00:06:46.241Z,80.000
2017-03-19T00:16:02.685Z,80.184
2017-03-19T00:22:10.775Z,80.521
2017-03-19T00:25:15.909Z,80.508
2017-03-19T00:34:31.233Z,80.634
2017-03-19T00:40:41.094Z,80.672
2017-03-19T00:43:38.771Z,80.844
2017-03-19T00:46:52.846Z,80.972
2017-03-19T00:49:45.989Z,81.204
2017-03-19T00:56:03.421Z,81.357
2017-03-19T00:59:08.287Z,81.937
2017-03-19T01:02:12.918Z,82.047
2017-03-19T01:05:17.614Z,82.344
2017-03-19T01:08:14.712Z,82.616
2017-03-19T01:11:20.257Z,82.764
2017-03-19T01:14:34.468Z,82.923
2017-03-19T01:17:37.952Z,82.956
2017-03-19T01:20:42.818Z,83.298
2017-03-19T01:23:41.756Z,83.213
2017-03-19T01:29:59.376Z,83.684
2017-03-19T01:32:54.582Z,83.537
2017-03-19T01:36:01.193Z,83.774
2017-03-19T01:39:12.297Z,83.608
2017-03-19T01:42:17.208Z,83.595
2017-03-19T01:45:21.898Z,83.521
2017-03-19T01:48:19.910Z,83.916
2017-03-19T01:51:33.753Z,83.943
2017-03-19T01:54:36.394Z,84.167
2017-03-19T01:57:41.391Z,84.344
2017-03-19T02:00:45.786Z,84.374
2017-03-19T02:03:50.662Z,84.363
2017-03-19T02:12:54.092Z,84.990
2017-03-19T02:15:59.024Z,84.939
2017-03-19T02:19:13.772Z,84.741
2017-03-19T02:22:15.351Z,85.131
2017-03-19T02:25:19.695Z,85.057
2017-03-19T02:28:21.228Z,85.495
2017-03-19T02:34:30.984Z,85.447
2017-03-19T02:37:35.407Z,85.059
2017-03-19T02:40:33.019Z,85.101
2017-03-19T02:43:48.035Z,85.265
2017-03-19T02:46:40.266Z,85.454
2017-03-19T02:49:53.555Z,85.388
2017-03-19T02:59:07.427Z,85.577
2017-03-19T03:02:05.688Z,85.458
2017-03-19T03:05:17.625Z,85.653
2017-03-19T03:08:21.461Z,85.728
2017-03-19T03:14:32.750Z,85.928
2017-03-19T03:17:35.126Z,86.090
2017-03-19T03:20:40.121Z,86.070
2017-03-19T03:23:44.956Z,86.095
2017-03-19T03:26:49.462Z,86.219
2017-03-19T03:29:54.102Z,86.144
2017-03-19T03:33:00.775Z,86.801
2017-03-19T03:36:03.330Z,86.698
2017-03-19T03:39:07.661Z,87.114
2017-03-19T03:42:12.016Z,86.852
2017-03-19T03:45:15.186Z,86.793
2017-03-19T03:51:25.072Z,86.675
2017-03-19T03:54:29.360Z,86.807
2017-03-19T03:57:24.766Z,86.892
2017-03-19T04:00:39.802Z,86.949
2017-03-19T04:03:37.997Z,86.764
2017-03-19T04:06:41.549Z,86.862
2017-03-19T04:09:38.469Z,86.894
2017-03-19T04:12:43.945Z,86.642
2017-03-19T04:15:49.130Z,86.702
2017-03-19T04:19:02.349Z,86.661
2017-03-19T04:22:07.231Z,86.257
2017-03-19T04:28:15.965Z,84.692
2017-03-19T04:31:19.932Z,84.853
2017-03-19T04:40:33.391Z,85.363
2017-03-19T04:46:42.215Z,85.746
2017-03-19T04:55:59.479Z,86.730
2017-03-19T05:01:55.930Z,86.615
2017-03-19T05:11:18.865Z,86.565
2017-03-19T05:14:23.345Z,86.632
2017-03-19T05:17:29.092Z,86.684
2017-03-19T05:20:32.429Z,86.502
2017-03-19T05:23:38.231Z,85.884
2017-03-19T05:26:43.759Z,85.934
2017-03-19T05:29:46.157Z,85.938
2017-03-19T05:32:37.574Z,86.416
2017-03-19T05:35:43.058Z,87.055
2017-03-19T05:38:56.792Z,87.181
2017-03-19T05:42:00.195Z,87.191
2017-03-19T05:45:06.256Z,87.203
2017-03-19T05:48:01.238Z,87.116
2017-03-19T05:54:18.506Z,87.076
2017-03-19T05:57:23.382Z,86.808
2017-03-19T06:00:27.263Z,86.505
2017-03-19T06:03:31.978Z,86.950
2017-03-19T06:06:35.205Z,87.408
2017-03-19T06:09:42.852Z,87.425
2017-03-19T06:12:41.233Z,87.538
2017-03-19T06:15:46.059Z,87.750
2017-03-19T06:18:50.065Z,87.813
2017-03-19T06:24:59.885Z,87.588
2017-03-19T06:28:03.305Z,87.822
2017-03-19T06:34:12.781Z,87.758
2017-03-19T06:37:17.107Z,87.768
2017-03-19T06:40:21.781Z,87.945
2017-03-19T06:43:19.179Z,87.983
2017-03-19T06:46:32.808Z,88.205
2017-03-19T06:49:35.988Z,88.129
2017-03-19T06:52:41.135Z,87.867
2017-03-19T06:55:46.759Z,88.119
2017-03-19T06:58:48.928Z,88.338
2017-03-19T07:01:53.743Z,88.438
2017-03-19T07:05:00.708Z,88.354
2017-03-19T07:08:01.016Z,88.222
2017-03-19T07:11:07.836Z,88.278
2017-03-19T07:17:13.845Z,88.248
2017-03-19T07:20:13.871Z,88.242
2017-03-19T07:23:19.788Z,88.658
2017-03-19T07:26:24.786Z,88.249
2017-03-19T07:29:28.078Z,88.315
2017-03-19T07:32:33.115Z,88.026
2017-03-19T07:35:38.185Z,88.086
2017-03-19T07:38:43.766Z,88.082
2017-03-19T07:47:56.677Z,87.806
2017-03-19T07:50:59.442Z,87.823
2017-03-19T07:54:04.835Z,87.759
2017-03-19T07:57:08.085Z,87.765
2017-03-19T08:00:12.872Z,87.646
2017-03-19T08:03:10.956Z,87.676
2017-03-19T08:06:24.435Z,87.748
2017-03-19T08:09:18.476Z,87.504
2017-03-19T08:15:34.819Z,87.348
2017-03-19T08:18:31.775Z,87.068
2017-03-19T08:21:44.932Z,86.545
2017-03-19T08:27:55.960Z,85.967
2017-03-19T08:34:03.554Z,85.994
2017-03-19T08:40:12.651Z,85.949
2017-03-19T08:43:17.393Z,85.894
2017-03-19T08:49:28.398Z,85.962
2017-03-19T08:55:35.674Z,85.313
2017-03-19T09:04:47.578Z,85.254
2017-03-19T09:07:48.106Z,85.139
2017-03-19T09:10:56.415Z,84.793
2017-03-19T09:14:01.281Z,84.905
2017-03-19T09:17:07.284Z,84.689
2017-03-19T09:20:01.904Z,84.291
2017-03-19T09:26:19.829Z,83.707
2017-03-19T09:29:24.248Z,83.361
2017-03-19T09:32:21.601Z,83.430
2017-03-19T09:35:34.381Z,83.493
2017-03-19T09:38:40.385Z,82.905
2017-03-19T09:41:43.572Z,83.017
2017-03-19T09:44:48.586Z,82.377
2017-03-19T09:47:51.945Z,82.374
2017-03-19T09:50:56.546Z,81.833
2017-03-19T09:54:01.559Z,83.026
2017-03-19T09:57:06.391Z,83.134
2017-03-19T10:00:11.505Z,83.227
2017-03-19T10:03:08.849Z,82.330
2017-03-19T10:06:16.774Z,82.333
2017-03-19T10:09:27.945Z,81.898
2017-03-19T10:15:39.294Z,80.348
2017-03-19T10:18:35.254Z,81.543
2017-03-19T10:21:43.807Z,81.106
2017-03-19T10:24:46.517Z,81.563
2017-03-19T10:30:58.052Z,80.929
2017-03-19T10:34:11.376Z,79.252
2017-03-19T10:37:16.405Z,78.281
2017-03-19T10:40:14.197Z,78.423
2017-03-19T10:43:27.748Z,78.309
2017-03-19T10:46:30.768Z,80.293
2017-03-19T10:49:35.144Z,79.990
2017-03-19T10:52:34.385Z,81.205
2017-03-19T10:55:45.842Z,83.349
2017-03-19T10:58:50.853Z,83.709
2017-03-19T11:01:55.556Z,84.342
2017-03-19T11:05:01.912Z,85.165
2017-03-19T11:08:04.831Z,86.067
2017-03-19T11:11:09.896Z,86.674
2017-03-19T11:14:06.853Z,86.686
2017-03-19T11:17:19.952Z,88.022
2017-03-19T11:23:30.130Z,88.102
2017-03-19T11:26:34.424Z,87.583
2017-03-19T11:29:39.186Z,88.179
2017-03-19T12:03:24.673Z,88.432
2017-03-19T12:09:29.388Z,88.918
2017-03-19T12:12:34.869Z,88.822
2017-03-19T12:15:48.095Z,88.274
2017-03-19T12:18:52.623Z,88.742
2017-03-19T12:21:51.119Z,88.826
2017-03-19T12:28:01.733Z,88.417
2017-03-19T12:31:13.114Z,88.868
2017-03-19T12:34:11.702Z,88.885
2017-03-19T12:37:16.013Z,89.442
2017-03-19T12:40:30.398Z,89.159
2017-03-19T12:46:41.458Z,88.829
2017-03-19T12:58:51.041Z,89.625
2017-03-19T13:04:59.263Z,89.820
2017-03-19T13:11:07.784Z,89.728
2017-03-19T13:17:18.187Z,89.804
2017-03-19T13:23:28.822Z,89.452
2017-03-19T13:26:42.347Z,89.055
2017-03-19T13:29:37.584Z,89.087
2017-03-19T13:32:50.458Z,89.828
2017-03-19T13:35:54.794Z,88.926
2017-03-19T13:38:59.517Z,89.133
2017-03-19T13:41:58.632Z,88.995
2017-03-19T13:45:08.431Z,89.182
2017-03-19T13:48:09.494Z,88.980
2017-03-19T13:51:13.887Z,88.911
2017-03-19T13:54:19.458Z,89.660
2017-03-19T13:57:28.420Z,89.362
2017-03-19T14:00:33.402Z,89.319
2017-03-19T14:03:31.500Z,89.063
2017-03-19T14:06:43.947Z,88.621
2017-03-19T14:09:48.522Z,89.015
2017-03-19T14:12:53.561Z,89.319
2017-03-19T14:15:53.032Z,89.160
2017-03-19T14:19:03.455Z,89.574
2017-03-19T14:22:08.348Z,89.676
2017-03-19T14:25:13.381Z,89.874
2017-03-19T14:28:18.867Z,90.139
2017-03-19T14:31:22.397Z,90.074
2017-03-19T14:34:27.399Z,90.426
2017-03-19T14:37:32.529Z,90.387
2017-03-19T14:40:37.665Z,90.063
2017-03-19T14:43:34.973Z,90.047
2017-03-19T14:46:48.254Z,90.067
2017-03-19T14:49:53.567Z,90.544
2017-03-19T14:52:58.118Z,90.237
2017-03-19T14:56:02.768Z,90.165
2017-03-19T14:59:07.911Z,90.233
2017-03-19T15:02:12.831Z,90.668
2017-03-19T15:05:17.838Z,90.980
2017-03-19T15:08:21.904Z,90.764
2017-03-19T15:11:26.539Z,91.125
2017-03-19T15:14:31.263Z,91.433
2017-03-19T15:20:34.472Z,91.383
2017-03-19T15:23:45.702Z,91.458
2017-03-19T15:29:55.979Z,91.845
2017-03-19T15:33:00.677Z,91.856
2017-03-19T15:36:06.381Z,91.807
2017-03-19T15:39:02.423Z,91.872
2017-03-19T15:42:09.393Z,91.912
2017-03-19T15:45:12.761Z,92.224
2017-03-19T15:48:19.226Z,92.065
2017-03-19T15:51:31.508Z,92.162
2017-03-19T15:54:30.431Z,92.348
2017-03-19T15:57:33.126Z,92.221
2017-03-19T16:00:40.532Z,92.500
2017-03-19T16:03:51.910Z,92.705
2017-03-19T16:06:56.268Z,92.598
2017-03-19T16:09:53.959Z,92.751
2017-03-19T16:25:24.877Z,93.414
2017-03-19T16:28:23.383Z,93.500
2017-03-19T16:31:34.791Z,93.564
2017-03-19T16:46:55.330Z,93.933
2017-03-19T16:50:00.895Z,94.043
2017-03-19T16:56:09.988Z,94.091
2017-03-19T16:59:15.024Z,94.149
2017-03-19T17:02:12.212Z,94.162
2017-03-19T17:05:25.784Z,94.312
2017-03-19T17:08:30.070Z,94.556
2017-03-19T17:14:32.521Z,94.887
2017-03-19T17:17:47.033Z,94.963
2017-03-19T17:20:42.163Z,95.112
2017-03-19T17:26:54.070Z,95.101
2017-03-19T17:30:05.617Z,95.188
2017-03-19T17:33:05.773Z,95.394
2017-03-19T17:36:08.030Z,95.328
2017-03-19T17:39:13.289Z,95.236
2017-03-19T17:42:22.887Z,95.228
2017-03-19T17:45:29.991Z,95.425
2017-03-19T17:48:22.288Z,95.493
2017-03-19T17:51:35.397Z,95.357
2017-03-19T17:54:32.286Z,95.563
2017-03-19T18:00:49.287Z,95.609
2017-03-19T18:03:50.390Z,95.730
2017-03-19T18:06:52.311Z,95.660
2017-03-19T18:16:15.102Z,95.927
2017-03-19T18:19:17.261Z,96.101
2017-03-19T18:25:27.396Z,96.336
2017-03-19T18:28:31.693Z,96.456
2017-03-19T18:31:32.574Z,96.555
2017-03-19T18:34:35.309Z,96.633
2017-03-19T18:37:42.250Z,96.651
2017-03-19T18:43:55.617Z,97.078
2017-03-19T18:50:05.223Z,97.207
2017-03-19T18:59:19.980Z,97.100
2017-03-19T19:05:29.764Z,97.149
2017-03-19T19:08:35.476Z,97.435
2017-03-19T19:11:38.867Z,97.416
2017-03-19T19:17:48.109Z,97.420
2017-03-19T19:20:52.892Z,97.403
2017-03-19T19:23:57.898Z,97.580
2017-03-19T19:36:17.612Z,98.193
2017-03-19T20:03:53.681Z,99.747
2017-03-19T20:13:00.059Z,99.887
2017-03-19T20:16:09.719Z,99.900
2017-03-19T20:43:48.360Z,99.849
2017-03-19T20:46:50.065Z,99.916
2017-03-19T21:26:44.453Z,100.000
2017-03-19T21:48:17.348Z,100.000
2017-03-19T21:54:24.309Z,100.000
2017-03-19T22:00:31.536Z,100.000
2017-03-19T22:09:45.259Z,100.000
2017-03-19T22:12:53.450Z,99.958
2017-03-19T22:15:53.947Z,100.000
2017-03-19T22:18:58.841Z,99.996
2017-03-19T22:28:05.050Z,99.985
2017-03-19T22:31:11.597Z,100.000
2017-03-19T22:37:28.850Z,100.000
2017-03-19T22:40:25.789Z,99.996
2017-03-19T22:43:38.839Z,99.955
2017-03-19T22:49:48.364Z,99.816
2017-03-19T22:52:53.282Z,99.773
2017-03-19T22:55:57.976Z,99.719
2017-03-19T22:58:53.588Z,99.713
2017-03-19T23:02:07.019Z,99.758
2017-03-19T23:05:04.358Z,99.735
2017-03-19T23:11:23.504Z,99.764
2017-03-19T23:17:32.555Z,99.818
2017-03-19T23:23:44.979Z,99.867
2017-03-19T23:26:43.247Z,99.814
2017-03-19T23:32:55.592Z,99.698
2017-03-19T23:35:54.110Z,99.698
2017-03-19T23:38:58.977Z,99.550
2017-03-19T23:42:04.649Z,99.403
2017-03-19T23:45:11.777Z,99.379
